This is the latest recevied weather packets stored in our database for station/object IW4DZV-13. If no packets are shown the sender has not sent any weather packets the latest 10 day(s).
| Time | Temp. | Humidity | Pressure | Rain* | Wind** | Luminosity | Snow |
|---|---|---|---|---|---|---|---|
| 1787656520 | 27.22° C | 67% | 1009.7 hPa | 0.25 mm | - | 895 W/m² | - |
| 1787655622 | 27.22° C | 65% | 1009.7 hPa | 0.25 mm | - | 308 W/m² | - |
| 1787654717 | 26.67° C | 66% | 1009.6 hPa | 0.25 mm | - | 809 W/m² | - |
| 1787653817 | 26.11° C | 70% | 1009.5 hPa | 0.25 mm | - | 823 W/m² | - |
| 1787652916 | 26.67° C | 71% | 1009.4 hPa | 0.25 mm | - | 835 W/m² | - |
| 1787652016 | 26.67° C | 70% | 1009.1 hPa | 0.25 mm | - | 882 W/m² | - |
| 1787651118 | 26.67° C | 68% | 1009.2 hPa | 0.25 mm | - | 592 W/m² | - |
| 1787650210 | 26.67° C | 70% | 1009.4 hPa | 0.25 mm | - | 780 W/m² | - |
| 1787649305 | 25.56° C | 73% | 1009.5 hPa | 0.25 mm | - | 824 W/m² | - |
| 1787648405 | 25° C | 75% | 1009.5 hPa | 0.25 mm | - | 272 W/m² | - |
| 1787647502 | 25° C | 74% | 1009.4 hPa | 0.25 mm | - | 782 W/m² | - |
| 1787646673 | 24.44° C | 77% | 1009.4 hPa | 0.25 mm | - | 645 W/m² | - |
| 1787645760 | 24.44° C | 79% | 1009.3 hPa | 0.25 mm | - | 622 W/m² | - |
| 1787644859 | 23.89° C | 82% | 1009.5 hPa | 0.25 mm | - | 670 W/m² | - |
| 1787643954 | 23.33° C | 86% | 1009.6 hPa | 0.25 mm | - | 538 W/m² | - |
| 1787643049 | 22.22° C | 89% | 1009.8 hPa | 0.25 mm | - | 476 W/m² | - |
| 1787642145 | 21.11° C | 92% | 1009.5 hPa | 0.25 mm | - | 401 W/m² | - |
| 1787641249 | 20° C | 92% | 1009.4 hPa | 0.25 mm | - | 364 W/m² | - |
| 1787640342 | 20° C | 92% | 1009.5 hPa | 0.25 mm | - | 178 W/m² | - |
| 1787639441 | 19.44° C | 92% | 1009.4 hPa | 0.25 mm | - | 81 W/m² | - |
| 1787638551 | 19.44° C | 92% | 1009.5 hPa | 0.25 mm | - | 70 W/m² | - |
| 1787637640 | 19.44° C | 92% | 1009 hPa | 0.25 mm | - | 160 W/m² | - |
| 1787636738 | 19.44° C | 92% | 1009 hPa | 0.25 mm | - | 130 W/m² | - |
| 1787635842 | 18.89° C | 92% | 1008.7 hPa | 0.25 mm | - | 58 W/m² | - |
| 1787634943 | 18.89° C | 92% | 1008.5 hPa | 0.25 mm | - | 25 W/m² | - |
* Rain since midnight (hover to see other rain measurements)
** Current wind speed in m/s (hover to see current wind gust speed)